Terminal Aerodrome Forecast
Issued by NWS Sioux Falls, SD

Home | Current Version | Previous Version | Text Only | Print | Product List | Glossary On
Versions: 1 2 3 4 5 6 7 8 9 10 11 12 13 14 15
156
FTUS43 KFSD 211137
TAFFSD
TAF
KFSD 211137Z 2112/2212 10004KT 2SM -SHRA BR OVC003
     FM211500 12004KT 5SM -SHRA BR OVC008
     FM211900 VRB03KT P6SM OVC015
     FM212100 VRB03KT P6SM OVC022
     FM212300 19004KT P6SM BKN035
     FM220200 00000KT P6SM SCT060
     FM220800 13003KT 4SM BR SCT003=

USA.gov is the U.S. government's official web portal to all federal, state and local government web resources and services.